Aérodrome :
LOGIN :

S'inscrire | Disclaimer

   EN    FR    IT 

 










Légende :    VFR   VFR Marginal   IFR   IFR Intensif   IFR Très Intensif
Visi : 
Plafond : 
>= 8 km
>= 3000ft
5 à 8 km
1000 à 3000 ft
1500m à 5 km
500 à 1000 ft
800 à 1500m
200 à 500 ft
< 800m
< 200 ft
Symboles :   Orages  Brouillard  Fortes neiges  Fortes précipitations  Vent > 20 kt
SIGMETs :   Divers  Orages  Givrage  Turbulence  Onde Orograph.  Cendres Volcan.







- Altitude de l'aérodrome : 1521 ft
- Code IATA : NCY
- Voir les cartes d'approche


LFLP - Annecy

DERNIER METAR :
  • 190530Z AUTO 33003KT CAVOK M01/M02 Q1023 NOSIG

METARs EXPIRÉS :
  • 190500Z AUTO VRB01KT CAVOK M02/M03 Q1023 NOSIG
  • 190430Z AUTO VRB01KT CAVOK M01/M02 Q1022 NOSIG
  • 190400Z AUTO VRB02KT CAVOK M01/M02 Q1022 NOSIG
  • 190330Z AUTO 08002KT CAVOK M01/M02 Q1022 NOSIG
  • 190300Z AUTO VRB02KT CAVOK M01/M02 Q1022 NOSIG

TAF TAF LFLP
Valide du 19 à 03h jusqu'au 20 à 03h UTC


190200Z 1903/2003 VRB03KT CAVOK
BECMG 1908/1911 02010KT
BECMG 1923/2001 VRB03KT
Pas de NOTAMs connus pour ce terrain.



MET'MAP, la Météo Aéronautique d'un coup d'oeil ! - Copyright ORBIFLY Décembre 2007 - Disclaimer

ORBIFLY MET'MAP TEAM :

Programmation & Développement : Alexandra Zaïnal
Conception & Développement : Baudouin d'Aumeries
Co-Programmation & Développement : Marc-Olivier Méhu
Soutien technique & logistique : Manuel Goepfert

Contact : metmap@orbifly.com




SOURCES & CREDITS :

   NOAA